createdAt,value
2024-05-09T00:00:42.016Z,34.45
2024-05-09T00:03:11.074Z,26.73
2024-05-09T00:05:44.432Z,29.83
2024-05-09T00:08:12.516Z,26.13
2024-05-09T00:10:41.130Z,29.80
2024-05-09T00:13:10.197Z,33.35
2024-05-09T00:15:38.689Z,38.40
2024-05-09T00:18:09.236Z,24.70
2024-05-09T00:20:40.130Z,28.88
2024-05-09T00:23:11.598Z,31.58
2024-05-09T00:25:40.661Z,28.83
2024-05-09T00:28:08.231Z,30.27
2024-05-09T00:30:37.209Z,31.88
2024-05-09T00:33:09.964Z,33.05
2024-05-09T00:35:39.271Z,30.42
2024-05-09T00:38:06.960Z,31.05
2024-05-09T00:40:43.393Z,36.25
2024-05-09T00:43:13.174Z,34.08
2024-05-09T00:45:42.045Z,38.88
2024-05-09T00:48:14.221Z,26.30
2024-05-09T00:50:46.682Z,28.98
2024-05-09T00:53:17.371Z,30.58
2024-05-09T00:55:46.598Z,32.53
2024-05-09T00:58:20.828Z,26.77
2024-05-09T01:00:50.282Z,38.92
2024-05-09T01:03:18.425Z,23.55
2024-05-09T01:05:46.529Z,36.45
2024-05-09T01:08:14.265Z,32.25
2024-05-09T01:10:44.835Z,30.75
2024-05-09T01:13:13.675Z,28.42
2024-05-09T01:15:41.349Z,28.00
2024-05-09T01:18:12.460Z,29.05
2024-05-09T01:20:44.607Z,28.10
2024-05-09T01:23:15.750Z,27.88
2024-05-09T01:25:46.154Z,29.70
2024-05-09T01:28:15.086Z,29.63
2024-05-09T01:30:42.751Z,27.00
2024-05-09T01:33:11.889Z,34.80
2024-05-09T01:35:42.284Z,26.17
2024-05-09T01:38:17.022Z,29.48
2024-05-09T01:40:45.346Z,34.25
2024-05-09T01:43:12.897Z,28.88
2024-05-09T01:45:41.597Z,28.08
2024-05-09T01:48:11.089Z,32.90
2024-05-09T01:50:42.152Z,33.83
2024-05-09T01:53:12.625Z,27.27
2024-05-09T01:55:40.853Z,30.70
2024-05-09T01:58:09.628Z,35.53
2024-05-09T02:00:41.045Z,28.67
2024-05-09T02:03:15.827Z,28.40
2024-05-09T02:05:47.275Z,33.50
2024-05-09T02:08:19.995Z,35.78
2024-05-09T02:10:50.130Z,31.55
2024-05-09T02:13:18.303Z,31.67
2024-05-09T02:15:45.967Z,39.30
2024-05-09T02:18:14.038Z,30.27
2024-05-09T02:20:43.027Z,32.15
2024-05-09T02:23:11.368Z,33.17
2024-05-09T02:25:39.394Z,29.55
2024-05-09T02:28:06.936Z,30.77
2024-05-09T02:30:39.646Z,29.20
2024-05-09T02:33:11.388Z,35.70
2024-05-09T02:35:41.872Z,30.48
2024-05-09T02:38:10.321Z,36.95
2024-05-09T02:40:39.596Z,29.30
2024-05-09T02:43:10.388Z,32.65
2024-05-09T02:45:39.985Z,33.92
2024-05-09T02:48:12.514Z,33.17
2024-05-09T02:50:41.290Z,29.90
2024-05-09T02:53:10.063Z,27.67
2024-05-09T02:55:39.031Z,27.83
2024-05-09T02:58:10.195Z,24.73
2024-05-09T03:00:41.403Z,27.60
2024-05-09T03:03:14.898Z,33.83
2024-05-09T03:05:45.131Z,25.05
2024-05-09T03:08:13.352Z,30.60
2024-05-09T03:10:40.935Z,30.13
2024-05-09T03:13:10.221Z,34.20
2024-05-09T03:15:37.708Z,25.52
2024-05-09T03:18:06.531Z,35.55
2024-05-09T03:20:36.032Z,27.83
2024-05-09T03:23:08.885Z,28.10
2024-05-09T03:25:38.064Z,24.23
2024-05-09T03:28:05.935Z,29.83
2024-05-09T03:30:40.523Z,28.38
2024-05-09T03:33:18.633Z,30.48
2024-05-09T03:35:48.359Z,29.80
2024-05-09T03:38:16.493Z,29.48
2024-05-09T03:40:49.109Z,26.40
2024-05-09T03:43:18.009Z,29.15
2024-05-09T03:45:48.092Z,30.75
2024-05-09T03:48:16.025Z,28.80
2024-05-09T03:50:43.778Z,29.77
2024-05-09T03:53:12.917Z,27.02
2024-05-09T03:55:40.558Z,28.27
2024-05-09T03:58:08.398Z,30.95
2024-05-09T04:00:39.228Z,29.65
2024-05-09T04:03:10.607Z,29.40
2024-05-09T04:05:41.943Z,23.20
2024-05-09T04:08:11.101Z,25.33
2024-05-09T04:10:39.089Z,25.58
2024-05-09T04:13:07.306Z,23.50
2024-05-09T04:15:37.260Z,23.52
2024-05-09T04:18:05.531Z,23.45
2024-05-09T04:20:38.413Z,29.35
2024-05-09T04:23:12.855Z,30.20
2024-05-09T04:25:43.601Z,29.33
2024-05-09T04:28:11.439Z,27.52
2024-05-09T04:30:41.161Z,24.42
2024-05-09T04:33:12.443Z,22.08
2024-05-09T04:35:42.832Z,27.77
2024-05-09T04:38:11.333Z,24.83
2024-05-09T04:40:39.380Z,26.88
2024-05-09T04:43:13.889Z,22.33
2024-05-09T04:45:41.730Z,24.00
2024-05-09T04:48:10.327Z,28.38
2024-05-09T04:53:15.041Z,25.52
2024-05-09T04:55:43.193Z,25.33
2024-05-09T04:58:12.217Z,24.73
2024-05-09T05:00:41.059Z,22.75
2024-05-09T05:03:13.393Z,26.15
2024-05-09T05:05:44.838Z,22.50
2024-05-09T05:08:14.715Z,24.98
2024-05-09T05:10:44.004Z,22.30
2024-05-09T05:15:55.624Z,20.90
2024-05-09T05:18:24.601Z,21.02
2024-05-09T05:20:53.191Z,25.63
2024-05-09T05:23:22.132Z,20.88
2024-05-09T05:25:53.727Z,22.02
2024-05-09T05:28:22.052Z,21.88
2024-05-09T05:30:50.019Z,20.20
2024-05-09T05:36:49.504Z,25.48
2024-05-09T05:40:54.182Z,21.05
2024-05-09T05:43:59.725Z,20.35
2024-05-09T05:47:41.602Z,19.17
2024-05-09T05:55:03.928Z,17.17
2024-05-09T06:07:01.134Z,46.58
2024-05-09T06:10:21.324Z,29.75
2024-05-09T06:21:45.364Z,22.90
2024-05-09T06:24:48.823Z,15.70
2024-05-09T06:31:30.206Z,12.85
2024-05-09T06:35:02.510Z,15.77
2024-05-09T06:38:22.388Z,10.43
2024-05-09T07:02:41.453Z,14.73
2024-05-09T07:12:32.146Z,8.65
2024-05-09T07:15:00.039Z,10.60
2024-05-09T07:17:27.923Z,9.63
2024-05-09T07:23:11.309Z,11.73
2024-05-09T07:25:40.183Z,10.10
2024-05-09T07:40:05.705Z,9.65
2024-05-09T07:48:29.000Z,8.73
2024-05-09T08:02:31.624Z,12.20
2024-05-09T08:13:30.289Z,11.00
2024-05-09T08:17:17.883Z,9.90
2024-05-09T08:20:41.465Z,11.48
2024-05-09T08:42:30.892Z,7.72
2024-05-09T08:45:06.527Z,7.10
2024-05-09T08:50:54.916Z,6.75
2024-05-09T08:53:45.255Z,9.32
2024-05-09T08:56:16.505Z,7.88
2024-05-09T08:59:02.059Z,8.30
2024-05-09T09:01:59.960Z,9.02
2024-05-09T09:04:30.509Z,5.80
2024-05-09T09:07:00.369Z,7.13
2024-05-09T09:09:34.517Z,5.75
2024-05-09T09:12:15.637Z,5.07
2024-05-09T09:15:01.594Z,6.75
2024-05-09T09:17:29.379Z,6.47
2024-05-09T09:20:00.934Z,7.93
2024-05-09T09:22:28.800Z,6.45
2024-05-09T09:25:05.539Z,4.32
2024-05-09T09:27:34.828Z,4.15
2024-05-09T09:30:02.886Z,4.28
2024-05-09T09:32:30.705Z,4.25
2024-05-09T09:34:58.324Z,5.07
2024-05-09T09:37:32.486Z,4.35
2024-05-09T09:43:44.219Z,4.63
2024-05-09T09:46:13.664Z,5.57
2024-05-09T09:48:43.480Z,4.43
2024-05-09T09:51:15.115Z,6.32
2024-05-09T09:53:46.039Z,4.30
2024-05-09T09:56:16.058Z,4.78
2024-05-09T09:59:28.862Z,5.00
2024-05-09T10:02:21.977Z,5.95
2024-05-09T10:05:42.036Z,4.05
2024-05-09T10:08:22.677Z,3.70
2024-05-09T10:10:50.863Z,4.13
2024-05-09T10:15:52.346Z,4.85
2024-05-09T10:18:27.239Z,4.80
2024-05-09T10:20:57.379Z,5.47
2024-05-09T10:23:29.313Z,4.20
2024-05-09T10:26:01.797Z,4.57
2024-05-09T10:28:35.715Z,5.80
2024-05-09T10:31:15.981Z,4.57
2024-05-09T10:33:51.546Z,5.90
2024-05-09T10:36:25.088Z,5.20
2024-05-09T10:38:53.829Z,5.13
2024-05-09T10:41:22.687Z,4.85
2024-05-09T10:43:51.450Z,4.78
2024-05-09T10:46:19.932Z,4.60
2024-05-09T10:48:49.164Z,6.03
2024-05-09T10:51:21.867Z,6.53
2024-05-09T10:53:49.566Z,4.57
2024-05-09T10:56:17.852Z,4.78
2024-05-09T10:58:45.645Z,3.55
2024-05-09T11:01:14.468Z,4.80
2024-05-09T11:03:47.008Z,4.75
2024-05-09T11:06:18.538Z,3.92
2024-05-09T11:08:47.716Z,4.90
2024-05-09T11:11:21.011Z,4.80
2024-05-09T11:13:48.870Z,5.18
2024-05-09T11:16:21.174Z,3.90
2024-05-09T11:18:57.298Z,3.67
2024-05-09T11:21:26.292Z,4.72
2024-05-09T11:23:54.753Z,3.95
2024-05-09T11:26:25.236Z,5.20
2024-05-09T11:28:52.980Z,4.65
2024-05-09T11:31:21.396Z,5.50
2024-05-09T11:33:50.194Z,5.05
2024-05-09T11:36:20.927Z,4.47
2024-05-09T11:42:27.552Z,4.43
2024-05-09T11:44:55.513Z,5.20
2024-05-09T11:47:34.604Z,5.20
2024-05-09T11:50:12.977Z,7.45
2024-05-09T11:52:43.886Z,5.13
2024-05-09T11:55:11.997Z,5.45
2024-05-09T11:59:01.227Z,8.25
2024-05-09T12:11:34.632Z,6.30
2024-05-09T12:19:48.742Z,5.88
2024-05-09T12:22:04.038Z,6.28
2024-05-09T12:31:17.648Z,4.55
2024-05-09T12:33:46.008Z,4.82
2024-05-09T12:36:17.137Z,5.70
2024-05-09T12:38:44.718Z,2.63
2024-05-09T12:41:12.605Z,2.58
2024-05-09T12:43:40.265Z,4.85
2024-05-09T12:46:08.209Z,4.00
2024-05-09T12:48:36.121Z,4.05
2024-05-09T12:51:03.943Z,4.10
2024-05-09T12:53:31.481Z,3.53
2024-05-09T12:56:02.370Z,3.28
2024-05-09T12:58:32.083Z,3.83
2024-05-09T13:01:57.379Z,3.03
2024-05-09T13:05:14.470Z,2.83
2024-05-09T13:07:58.810Z,2.97
2024-05-09T13:10:32.022Z,3.42
2024-05-09T13:13:02.141Z,4.85
2024-05-09T13:35:36.095Z,3.38
2024-05-09T13:38:04.935Z,3.97
2024-05-09T13:40:35.362Z,3.80
2024-05-09T13:43:09.545Z,4.28
2024-05-09T13:45:37.858Z,3.90
2024-05-09T13:48:06.914Z,2.72
2024-05-09T13:50:40.734Z,4.05
2024-05-09T13:53:09.183Z,4.20
2024-05-09T13:55:57.377Z,8.38
2024-05-09T13:58:25.223Z,6.45
2024-05-09T14:01:02.471Z,5.03
2024-05-09T14:03:30.518Z,5.05
2024-05-09T14:05:59.426Z,5.05
2024-05-09T14:08:35.608Z,2.42
2024-05-09T14:11:09.591Z,2.95
2024-05-09T14:13:49.546Z,5.57
2024-05-09T14:16:46.162Z,3.40
2024-05-09T14:19:47.514Z,3.40
2024-05-09T14:22:19.048Z,4.68
2024-05-09T14:24:49.080Z,3.22
2024-05-09T14:27:41.012Z,6.80
2024-05-09T14:30:26.167Z,2.75
2024-05-09T14:33:01.909Z,3.95
2024-05-09T14:35:30.007Z,3.88
2024-05-09T14:37:57.727Z,4.80
2024-05-09T14:40:36.691Z,3.83
2024-05-09T14:43:37.962Z,3.28
2024-05-09T14:49:12.315Z,2.95
2024-05-09T14:56:23.600Z,3.72
2024-05-09T14:59:33.755Z,4.00
2024-05-09T15:10:11.289Z,5.13
2024-05-09T15:17:23.492Z,3.58
2024-05-09T15:20:30.454Z,2.40
2024-05-09T15:23:50.153Z,5.07
2024-05-09T15:30:18.147Z,4.15
2024-05-09T15:33:59.464Z,4.60
2024-05-09T15:43:48.279Z,3.60
2024-05-09T15:46:53.704Z,3.85
2024-05-09T15:49:56.639Z,3.78
2024-05-09T15:52:31.747Z,7.75
2024-05-09T16:00:39.944Z,3.97
2024-05-09T16:03:11.732Z,6.70
2024-05-09T16:06:23.293Z,5.57
2024-05-09T16:09:28.968Z,6.88
2024-05-09T16:11:58.652Z,5.30
2024-05-09T16:18:28.199Z,4.65
2024-05-09T16:21:01.784Z,6.20
2024-05-09T16:24:03.012Z,4.15
2024-05-09T16:26:34.649Z,4.47
2024-05-09T16:29:56.815Z,3.13
2024-05-09T16:32:47.389Z,3.33
2024-05-09T16:35:21.232Z,4.03
2024-05-09T16:37:49.255Z,3.47
2024-05-09T16:40:25.499Z,4.57
2024-05-09T16:43:04.858Z,4.90
2024-05-09T16:45:33.729Z,3.47
2024-05-09T16:48:02.537Z,3.42
2024-05-09T16:50:34.381Z,3.13
2024-05-09T16:53:04.988Z,3.97
2024-05-09T16:55:33.538Z,3.05
2024-05-09T16:58:51.734Z,3.08
2024-05-09T17:01:20.676Z,5.32
2024-05-09T17:03:49.428Z,4.07
2024-05-09T17:06:17.252Z,4.45
2024-05-09T17:08:44.971Z,2.97
2024-05-09T17:11:13.580Z,8.35
2024-05-09T17:13:44.066Z,3.72
2024-05-09T17:16:18.126Z,2.90
2024-05-09T17:22:32.263Z,2.90
2024-05-09T17:24:59.926Z,2.63
2024-05-09T17:27:55.910Z,3.60
2024-05-09T17:34:13.828Z,5.95
2024-05-09T17:37:04.695Z,3.22
2024-05-09T17:39:56.095Z,5.53
2024-05-09T17:42:23.738Z,5.85
2024-05-09T17:45:36.022Z,4.28
2024-05-09T17:48:28.833Z,3.45
2024-05-09T17:51:44.119Z,7.75
2024-05-09T17:54:11.619Z,7.35
2024-05-09T17:57:14.608Z,7.68
2024-05-09T17:59:42.262Z,6.20
2024-05-09T18:02:09.984Z,7.88
2024-05-09T18:04:38.132Z,8.18
2024-05-09T18:07:05.960Z,4.65
2024-05-09T18:09:34.212Z,12.95
2024-05-09T18:12:01.973Z,11.30
2024-05-09T18:14:29.588Z,13.13
2024-05-09T18:16:57.332Z,7.70
2024-05-09T18:19:25.128Z,10.52
2024-05-09T18:21:53.524Z,5.32
2024-05-09T18:24:22.238Z,5.90
2024-05-09T18:26:50.430Z,6.22
2024-05-09T18:29:21.706Z,5.65
2024-05-09T18:31:49.660Z,7.85
2024-05-09T18:34:17.392Z,3.58
2024-05-09T18:36:45.426Z,6.38
2024-05-09T18:39:13.776Z,6.72
2024-05-09T18:41:41.354Z,7.78
2024-05-09T18:44:09.222Z,5.55
2024-05-09T18:46:36.814Z,7.38
2024-05-09T18:49:04.482Z,3.17
2024-05-09T18:51:32.123Z,8.98
2024-05-09T18:53:59.670Z,7.25
2024-05-09T18:56:27.135Z,3.00
2024-05-09T18:58:54.712Z,4.07
2024-05-09T19:01:22.229Z,7.03
2024-05-09T19:03:50.617Z,8.23
2024-05-09T19:06:21.064Z,5.78
2024-05-09T19:08:50.425Z,5.45
2024-05-09T19:11:17.910Z,7.00
2024-05-09T19:13:45.360Z,4.90
2024-05-09T19:16:12.865Z,7.32
2024-05-09T19:18:42.122Z,4.88
2024-05-09T19:21:09.684Z,7.10
2024-05-09T19:23:38.534Z,6.57
2024-05-09T19:26:11.723Z,8.65
2024-05-09T19:28:40.522Z,9.45
2024-05-09T19:31:07.994Z,5.70
2024-05-09T19:33:36.960Z,7.25
2024-05-09T19:36:05.545Z,5.72
2024-05-09T19:41:00.818Z,6.93
2024-05-09T19:43:29.657Z,12.85
2024-05-09T19:45:58.172Z,9.18
2024-05-09T19:48:26.048Z,12.32
2024-05-09T19:50:53.854Z,10.75
2024-05-09T19:53:21.400Z,12.95
2024-05-09T19:55:48.850Z,11.60
2024-05-09T19:58:16.836Z,10.32
2024-05-09T20:00:44.982Z,10.13
2024-05-09T20:03:14.328Z,9.63
2024-05-09T20:05:47.155Z,11.57
2024-05-09T20:08:15.247Z,14.90
2024-05-09T20:10:59.430Z,9.82
2024-05-09T20:13:27.163Z,9.35
2024-05-09T20:15:54.873Z,11.70
2024-05-09T20:18:22.516Z,7.95
2024-05-09T20:20:53.365Z,9.50
2024-05-09T20:23:22.354Z,5.75
2024-05-09T20:25:49.905Z,8.00
2024-05-09T20:28:17.951Z,7.70
2024-05-09T20:30:45.404Z,5.70
2024-05-09T20:33:14.426Z,7.35
2024-05-09T20:35:42.039Z,7.85
2024-05-09T20:38:09.791Z,5.40
2024-05-09T20:40:39.208Z,5.72
2024-05-09T20:43:11.096Z,8.48
2024-05-09T20:45:39.508Z,7.35
2024-05-09T20:48:08.445Z,5.50
2024-05-09T20:53:14.288Z,8.00
2024-05-09T20:55:43.947Z,5.70
2024-05-09T20:58:13.108Z,10.90
2024-05-09T21:03:16.595Z,4.95
2024-05-09T21:05:45.877Z,6.15
2024-05-09T21:08:13.904Z,4.88
2024-05-09T21:10:41.589Z,5.90
2024-05-09T21:13:09.361Z,6.22
2024-05-09T21:15:37.208Z,6.65
2024-05-09T21:18:05.298Z,5.93
2024-05-09T21:20:34.914Z,5.28
2024-05-09T21:23:03.419Z,5.53
2024-05-09T21:27:59.135Z,7.45
2024-05-09T21:30:33.092Z,4.57
2024-05-09T21:33:10.369Z,5.28
2024-05-09T21:35:40.293Z,6.28
2024-05-09T21:38:08.133Z,7.50
2024-05-09T21:40:37.208Z,5.43
2024-05-09T21:43:08.932Z,9.82
2024-05-09T21:45:37.418Z,6.32
2024-05-09T21:48:06.242Z,5.88
2024-05-09T21:50:40.245Z,7.13
2024-05-09T21:53:13.446Z,4.80
2024-05-09T21:55:42.754Z,5.18
2024-05-09T21:58:11.675Z,6.25
2024-05-09T22:00:40.752Z,6.60
2024-05-09T22:03:10.750Z,4.88
2024-05-09T22:05:42.246Z,5.70
2024-05-09T22:08:10.634Z,5.30
2024-05-09T22:10:38.668Z,6.07
2024-05-09T22:13:07.184Z,6.85
2024-05-09T22:15:37.828Z,7.28
2024-05-09T22:18:08.307Z,6.07
2024-05-09T22:20:39.203Z,7.03
2024-05-09T22:23:08.686Z,7.32
2024-05-09T22:25:38.519Z,7.75
2024-05-09T22:28:06.822Z,6.90
2024-05-09T22:30:38.232Z,5.65
2024-05-09T22:33:12.130Z,5.60
2024-05-09T22:35:41.130Z,4.82
2024-05-09T22:40:46.269Z,5.88
2024-05-09T22:43:23.114Z,6.07
2024-05-09T22:45:54.255Z,8.07
2024-05-09T22:48:23.374Z,6.75
2024-05-09T22:50:51.281Z,5.28
2024-05-09T22:53:19.055Z,4.90
2024-05-09T22:55:46.535Z,6.78
2024-05-09T22:58:14.075Z,4.60
2024-05-09T23:00:42.269Z,5.82
2024-05-09T23:03:09.832Z,3.78
2024-05-09T23:05:37.475Z,6.63
2024-05-09T23:08:05.406Z,7.68
2024-05-09T23:10:36.677Z,5.10
2024-05-09T23:13:09.310Z,5.05
2024-05-09T23:15:38.754Z,4.78
2024-05-09T23:18:07.175Z,4.88
2024-05-09T23:20:38.742Z,6.28
2024-05-09T23:23:11.978Z,5.38
2024-05-09T23:25:41.797Z,4.57
2024-05-09T23:28:10.182Z,4.72
2024-05-09T23:30:40.592Z,4.38
2024-05-09T23:33:12.200Z,8.93
2024-05-09T23:35:44.153Z,5.05
2024-05-09T23:38:12.492Z,5.30
2024-05-09T23:40:41.884Z,7.45
2024-05-09T23:43:11.734Z,5.55
2024-05-09T23:45:40.519Z,5.07
2024-05-09T23:48:08.787Z,5.32
2024-05-09T23:50:38.748Z,4.93
2024-05-09T23:53:09.051Z,5.10
2024-05-09T23:55:37.919Z,5.10
2024-05-09T23:58:06.395Z,5.75
